Time;durP1;ratioP1;P1;durP2;ratioP2;P2;SDS_P1;SDS_P2;PMS_P1;PMS_P2;Temp;Humidity;BMP_temperature;BMP_pressure;BME280_temperature;BME280_humidity;BME280_pressure;Samples;Min_cycle;Max_cycle;Signal;HPM_P1;HPM_P2
2021/12/16 00:05:04;;;;;;;111.75;52.88;;;2.90;99.90;;;;;;5064722;28;20020;-76
2021/12/16 00:34:15;;;;;;;82.82;44.35;;;2.90;99.90;;;;;;5058045;28;20522;-76
2021/12/16 00:36:44;;;;;;;84.85;44.78;;;2.90;99.90;;;;;;5060420;28;20021;-77
2021/12/16 00:39:54;;;;;;;80.45;41.90;;;3.00;99.90;;;;;;5047444;28;20096;-76
2021/12/16 00:48:19;;;;;;;103.57;51.35;;;3.00;99.90;;;;;;5055549;28;20032;-76
2021/12/16 00:56:27;;;;;;;124.35;58.03;;;2.90;99.90;;;;;;5058576;28;20031;-79
2021/12/16 00:59:11;;;;;;;106.85;53.25;;;2.90;99.90;;;;;;5056838;28;20174;-76
2021/12/16 01:01:55;;;;;;;108.60;53.67;;;2.90;99.90;;;;;;5063577;28;20054;-75
2021/12/16 01:08:07;;;;;;;97.10;48.42;;;2.90;99.90;;;;;;5063093;28;20064;-76
2021/12/16 01:33:50;;;;;;;67.25;33.78;;;2.80;99.90;;;;;;5058553;28;20031;-77
2021/12/16 01:50:37;;;;;;;52.85;27.05;;;2.60;99.90;;;;;;5061230;28;20053;-78
2021/12/16 01:56:16;;;;;;;54.53;27.73;;;2.60;99.90;;;;;;5058898;28;20052;-78
2021/12/16 01:58:51;;;;;;;59.55;30.58;;;2.60;99.90;;;;;;5046474;28;20029;-76
2021/12/16 02:01:21;;;;;;;59.13;29.27;;;2.70;99.90;;;;;;5060646;28;20017;-77
2021/12/16 02:05:08;;;;;;;55.00;27.23;;;2.80;99.90;;;;;;5058352;28;20048;-76
2021/12/16 02:07:51;;;;;;;53.90;25.20;;;2.80;99.90;;;;;;5050993;28;20040;-77
2021/12/16 02:10:26;;;;;;;50.40;25.92;;;2.80;99.90;;;;;;5060587;28;20448;-76
2021/12/16 02:13:18;;;;;;;52.08;26.48;;;2.80;99.90;;;;;;5066117;28;20268;-77
2021/12/16 02:35:32;;;;;;;66.70;34.97;;;2.90;99.90;;;;;;5061055;28;20032;-77
2021/12/16 02:38:15;;;;;;;61.17;31.27;;;3.90;99.90;;;;;;5044189;28;20029;-77
2021/12/16 02:40:47;;;;;;;60.80;30.77;;;2.80;99.90;;;;;;5056434;28;20045;-76
2021/12/16 02:44:07;;;;;;;59.13;29.67;;;2.80;99.90;;;;;;5058529;28;20067;-77
2021/12/16 02:49:20;;;;;;;57.90;29.77;;;2.50;99.90;;;;;;5054198;28;20091;-78
2021/12/16 02:51:49;;;;;;;56.47;28.17;;;3.10;99.90;;;;;;5053441;28;20028;-76
2021/12/16 02:54:19;;;;;;;53.78;27.73;;;2.80;99.90;;;;;;5061227;28;20338;-77
2021/12/16 02:56:46;;;;;;;53.33;28.98;;;2.90;99.90;;;;;;5056435;28;20058;-76
2021/12/16 02:59:18;;;;;;;66.47;32.58;;;2.90;99.90;;;;;;5058603;28;20025;-76
2021/12/16 03:02:06;;;;;;;63.60;32.75;;;2.90;99.90;;;;;;5060284;28;20031;-76
2021/12/16 03:04:37;;;;;;;69.95;34.10;;;2.90;99.90;;;;;;5055733;28;20052;-76
2021/12/16 03:07:05;;;;;;;58.92;29.88;;;2.90;99.90;;;;;;5061660;28;20630;-76
2021/12/16 03:12:41;;;;;;;60.25;30.90;;;2.90;99.90;;;;;;5056745;28;20072;-76
2021/12/16 03:21:05;;;;;;;63.92;32.22;;;2.90;99.90;;;;;;5062799;28;20048;-76
2021/12/16 03:37:24;;;;;;;66.00;32.08;;;3.00;99.90;;;;;;5034718;28;20025;-80
2021/12/16 03:39:52;;;;;;;59.92;30.67;;;3.00;99.90;;;;;;5050514;28;20044;-77
2021/12/16 03:42:23;;;;;;;59.10;28.90;;;3.00;99.90;;;;;;5049077;28;20405;-78
2021/12/16 03:45:00;;;;;;;61.10;29.75;;;2.90;99.90;;;;;;5051790;28;20043;-78
2021/12/16 03:47:41;;;;;;;61.72;29.58;;;2.90;99.90;;;;;;5029681;28;20064;-79
2021/12/16 03:50:12;;;;;;;59.08;29.40;;;2.90;99.90;;;;;;5015730;28;20049;-79
2021/12/16 03:52:41;;;;;;;56.63;29.13;;;2.90;99.90;;;;;;5051645;28;20021;-80
2021/12/16 03:55:09;;;;;;;58.33;28.77;;;2.90;99.90;;;;;;5049345;28;20478;-78
2021/12/16 03:57:35;;;;;;;59.15;28.88;;;2.90;99.90;;;;;;5048653;28;20013;-77
2021/12/16 04:00:14;;;;;;;59.20;29.13;;;2.90;99.90;;;;;;5048687;28;20100;-76
2021/12/16 04:02:40;;;;;;;60.25;29.67;;;2.90;99.90;;;;;;5028964;28;20025;-77
2021/12/16 04:05:11;;;;;;;60.83;31.83;;;2.80;99.90;;;;;;5050869;28;20037;-79
2021/12/16 04:07:39;;;;;;;60.42;30.10;;;2.90;99.90;;;;;;5049789;28;20037;-77
2021/12/16 04:10:12;;;;;;;62.85;32.47;;;2.90;99.90;;;;;;5050373;28;20660;-81
2021/12/16 04:12:38;;;;;;;67.68;33.92;;;2.90;99.90;;;;;;5050783;28;20043;-79
2021/12/16 04:15:08;;;;;;;61.75;32.42;;;2.90;99.90;;;;;;5029423;28;20024;-78
2021/12/16 04:17:34;;;;;;;63.20;31.67;;;3.00;99.90;;;;;;5048836;28;20025;-78
2021/12/16 04:20:04;;;;;;;63.10;30.75;;;3.00;99.90;;;;;;5050592;28;20572;-78
2021/12/16 04:22:37;;;;;;;67.05;31.67;;;3.00;99.90;;;;;;5053098;28;20021;-79
2021/12/16 04:25:08;;;;;;;59.28;30.75;;;3.00;99.90;;;;;;5035806;28;20440;-77
2021/12/16 04:27:35;;;;;;;58.75;30.42;;;3.00;99.90;;;;;;5053625;28;20025;-81
2021/12/16 04:30:02;;;;;;;63.50;31.25;;;3.00;99.90;;;;;;5032559;28;20029;-77
2021/12/16 04:32:28;;;;;;;66.25;31.23;;;3.00;99.90;;;;;;5046418;28;20621;-77
2021/12/16 04:34:53;;;;;;;66.57;33.53;;;3.00;99.90;;;;;;5046305;28;20013;-80
2021/12/16 04:37:19;;;;;;;67.40;35.00;;;3.00;99.90;;;;;;5045177;28;20055;-77
2021/12/16 04:39:46;;;;;;;67.75;34.88;;;3.00;99.90;;;;;;5043773;28;20559;-77
2021/12/16 04:42:15;;;;;;;74.80;38.88;;;3.00;99.90;;;;;;5044291;28;20554;-78
2021/12/16 04:44:41;;;;;;;73.18;38.38;;;2.90;99.90;;;;;;5045060;28;20040;-79
2021/12/16 04:47:08;;;;;;;73.65;38.25;;;2.90;99.90;;;;;;5043604;28;20025;-79
2021/12/16 04:49:35;;;;;;;83.70;40.85;;;2.90;99.90;;;;;;5027946;28;20215;-79
2021/12/16 04:52:05;;;;;;;75.47;38.67;;;2.90;99.90;;;;;;5026445;28;20113;-78
2021/12/16 04:54:31;;;;;;;71.88;37.70;;;2.90;99.90;;;;;;5043983;28;20018;-78
2021/12/16 04:56:58;;;;;;;72.75;37.85;;;2.90;99.90;;;;;;5044709;28;20567;-80
2021/12/16 04:59:27;;;;;;;64.65;34.65;;;2.90;99.90;;;;;;5045282;28;20081;-78
2021/12/16 05:02:10;;;;;;;61.95;33.08;;;2.90;99.90;;;;;;5024600;28;20430;-77
2021/12/16 05:04:36;;;;;;;56.40;30.30;;;2.90;99.90;;;;;;5043199;28;20029;-77
2021/12/16 05:07:03;;;;;;;61.00;30.77;;;2.90;99.90;;;;;;5043879;28;20242;-78
2021/12/16 05:12:17;;;;;;;59.47;31.98;;;2.80;99.90;;;;;;5042797;28;20502;-79
2021/12/16 05:14:44;;;;;;;62.00;32.05;;;2.80;99.90;;;;;;5047500;28;20321;-78
2021/12/16 05:17:23;;;;;;;64.15;34.08;;;2.80;99.90;;;;;;5025344;28;20032;-79
2021/12/16 05:19:51;;;;;;;62.45;32.60;;;2.80;99.90;;;;;;5042559;28;20013;-78
2021/12/16 05:25:14;;;;;;;56.63;31.88;;;2.80;99.90;;;;;;5044052;28;20541;-77
2021/12/16 05:27:40;;;;;;;56.22;31.23;;;2.80;99.90;;;;;;5043550;28;20037;-76
2021/12/16 05:30:07;;;;;;;58.58;30.75;;;2.80;99.90;;;;;;5043052;28;20035;-78
2021/12/16 05:32:32;;;;;;;55.78;30.75;;;2.80;99.90;;;;;;5043316;28;20025;-78
2021/12/16 05:34:58;;;;;;;57.75;29.92;;;2.80;99.90;;;;;;5043339;28;20017;-80
2021/12/16 05:37:24;;;;;;;54.75;28.35;;;2.80;99.90;;;;;;5043933;28;20326;-80
2021/12/16 05:39:49;;;;;;;47.25;26.90;;;2.70;99.90;;;;;;5048194;28;20045;-79
2021/12/16 05:42:15;;;;;;;53.42;26.38;;;2.80;99.90;;;;;;5048697;28;20269;-78
2021/12/16 05:44:42;;;;;;;54.00;26.20;;;2.80;99.90;;;;;;5029511;28;20507;-79
2021/12/16 05:47:11;;;;;;;45.55;24.85;;;2.70;99.90;;;;;;5046787;28;20025;-76
2021/12/16 05:49:37;;;;;;;48.15;25.40;;;2.70;99.90;;;;;;5049985;28;20548;-78
2021/12/16 05:52:03;;;;;;;47.17;26.10;;;2.70;99.90;;;;;;5045057;28;20044;-77
2021/12/16 05:54:29;;;;;;;59.55;30.00;;;2.70;99.90;;;;;;5045831;28;20071;-76
2021/12/16 05:56:55;;;;;;;62.38;33.95;;;2.70;99.90;;;;;;5047781;28;20265;-77
2021/12/16 05:59:23;;;;;;;71.90;37.10;;;2.80;99.90;;;;;;5047960;28;20329;-80
2021/12/16 06:01:50;;;;;;;64.47;33.47;;;2.80;99.90;;;;;;5048692;28;20033;-78
2021/12/16 06:04:16;;;;;;;59.28;30.88;;;2.80;99.90;;;;;;5047242;28;20195;-79
2021/12/16 06:06:42;;;;;;;59.08;30.98;;;2.80;99.90;;;;;;5044652;28;20490;-80
2021/12/16 06:09:09;;;;;;;196.90;101.20;;;2.80;99.90;;;;;;5046316;28;20071;-78
2021/12/16 06:11:37;;;;;;;167.30;80.40;;;2.80;99.90;;;;;;5045761;28;20036;-78
2021/12/16 06:27:44;;;;;;;63.95;34.47;;;2.60;99.90;;;;;;5048436;28;20043;-77
2021/12/16 06:30:13;;;;;;;50.25;27.73;;;2.70;99.90;;;;;;5031696;28;20055;-78
2021/12/16 06:32:39;;;;;;;53.08;28.30;;;2.70;99.90;;;;;;5049901;28;20051;-78
2021/12/16 06:35:10;;;;;;;49.13;26.35;;;2.70;99.90;;;;;;5052517;28;20495;-78
2021/12/16 06:37:36;;;;;;;49.17;25.50;;;2.80;99.90;;;;;;5052520;28;20029;-77
2021/12/16 06:40:24;;;;;;;51.53;26.73;;;2.70;99.90;;;;;;5041173;28;20057;-77
2021/12/16 06:42:54;;;;;;;52.60;26.67;;;2.80;99.90;;;;;;5058700;28;20047;-77
2021/12/16 06:45:25;;;;;;;59.47;30.08;;;2.80;99.80;;;;;;5054511;28;20017;-78
2021/12/16 06:48:02;;;;;;;57.45;31.10;;;2.90;99.60;;;;;;5050081;28;20514;-77
2021/12/16 06:50:47;;;;;;;58.97;29.55;;;2.90;99.50;;;;;;5037737;28;20018;-80
2021/12/16 06:53:22;;;;;;;55.85;28.70;;;3.00;99.30;;;;;;5053319;28;20109;-78
2021/12/16 06:56:10;;;;;;;50.70;27.02;;;3.00;99.10;;;;;;5052153;28;20021;-76
2021/12/16 06:58:49;;;;;;;49.90;24.25;;;3.10;99.00;;;;;;5054075;28;20096;-78
2021/12/16 07:04:18;;;;;;;55.33;28.08;;;3.10;98.70;;;;;;4993844;28;20040;-77
2021/12/16 07:06:44;;;;;;;56.90;29.15;;;3.10;98.90;;;;;;4979637;28;20049;-77
2021/12/16 07:09:27;;;;;;;55.33;29.25;;;3.10;99.10;;;;;;4993856;28;20065;-78
2021/12/16 07:11:57;;;;;;;57.58;28.90;;;3.10;99.20;;;;;;4996301;28;20034;-77
2021/12/16 07:14:35;;;;;;;53.28;27.90;;;3.10;99.10;;;;;;4992759;28;20342;-77
2021/12/16 07:17:06;;;;;;;46.28;24.38;;;3.20;99.10;;;;;;4998802;28;20046;-78
2021/12/16 07:19:32;;;;;;;36.25;20.70;;;3.20;98.90;;;;;;5002608;28;20046;-79
2021/12/16 07:21:58;;;;;;;38.17;21.25;;;3.30;98.90;;;;;;4999681;28;20276;-79
2021/12/16 07:24:51;;;;;;;38.13;20.40;;;3.30;98.90;;;;;;5001982;28;20264;-76
2021/12/16 07:27:17;;;;;;;38.30;21.58;;;3.60;98.80;;;;;;4989699;28;20138;-77
2021/12/16 07:29:43;;;;;;;37.50;21.00;;;3.40;98.50;;;;;;5007033;28;20022;-78
2021/12/16 07:32:10;;;;;;;35.50;19.55;;;3.40;98.30;;;;;;5003627;28;20606;-82
2021/12/16 07:34:36;;;;;;;35.60;17.92;;;3.40;98.20;;;;;;5008156;28;20037;-78
2021/12/16 07:37:08;;;;;;;38.05;19.60;;;3.50;98.00;;;;;;5010906;28;20080;-78
2021/12/16 07:39:40;;;;;;;34.35;19.42;;;3.50;97.60;;;;;;5008122;28;20034;-78
2021/12/16 07:42:12;;;;;;;36.65;19.60;;;3.50;97.60;;;;;;5069058;28;20082;-78
2021/12/16 07:44:39;;;;;;;30.77;16.67;;;3.60;97.50;;;;;;5070784;28;20032;-77
2021/12/16 07:47:10;;;;;;;30.00;16.23;;;3.60;97.50;;;;;;5064700;28;20024;-76
2021/12/16 07:49:40;;;;;;;27.35;15.15;;;3.60;97.20;;;;;;5066302;28;20025;-79
2021/12/16 07:52:14;;;;;;;35.75;16.98;;;3.70;97.10;;;;;;5049157;28;20048;-82
2021/12/16 07:54:42;;;;;;;25.55;12.27;;;3.70;96.90;;;;;;5052309;28;20020;-81
2021/12/16 07:57:08;;;;;;;23.20;10.35;;;3.70;96.80;;;;;;5065790;28;20056;-80
2021/12/16 07:59:36;;;;;;;21.60;11.30;;;3.80;96.60;;;;;;5062630;28;20025;-78
2021/12/16 08:02:12;;;;;;;20.73;10.50;;;3.80;96.70;;;;;;5056831;28;20021;-79
2021/12/16 08:04:45;;;;;;;18.42;9.80;;;3.90;96.60;;;;;;5069017;28;20043;-81
2021/12/16 08:07:14;;;;;;;19.75;10.50;;;4.00;96.80;;;;;;5061962;28;20055;-77
2021/12/16 08:10:05;;;;;;;22.42;11.10;;;4.00;96.40;;;;;;5062559;28;20102;-79
2021/12/16 08:12:31;;;;;;;21.70;10.57;;;4.00;95.90;;;;;;5058261;28;20292;-78
2021/12/16 08:14:57;;;;;;;20.65;10.50;;;4.00;96.20;;;;;;5063768;28;20017;-83
2021/12/16 08:17:24;;;;;;;21.73;10.45;;;4.10;96.40;;;;;;5061132;28;20687;-81
2021/12/16 08:19:50;;;;;;;17.92;9.52;;;4.10;96.30;;;;;;5054696;28;20033;-81
2021/12/16 08:22:16;;;;;;;20.80;10.93;;;4.20;96.20;;;;;;5048639;28;20027;-79
2021/12/16 08:24:42;;;;;;;19.80;11.23;;;4.20;96.10;;;;;;5059855;28;20559;-79
2021/12/16 08:27:10;;;;;;;21.48;11.65;;;4.20;95.70;;;;;;5065754;28;20062;-82
2021/12/16 08:29:37;;;;;;;25.35;15.05;;;4.30;96.10;;;;;;5067072;28;20119;-78
2021/12/16 08:32:05;;;;;;;29.50;13.85;;;4.40;95.90;;;;;;5051504;28;20049;-78
2021/12/16 08:34:38;;;;;;;23.40;13.18;;;4.40;95.90;;;;;;5058668;28;20361;-78
2021/12/16 08:37:06;;;;;;;24.38;13.23;;;4.50;95.10;;;;;;5042366;28;20103;-77
2021/12/16 08:39:32;;;;;;;26.40;14.73;;;4.50;95.10;;;;;;5055018;28;20274;-79
2021/12/16 08:42:01;;;;;;;24.73;14.15;;;4.60;95.00;;;;;;5053660;28;20029;-77
2021/12/16 08:44:36;;;;;;;26.98;15.48;;;4.60;94.90;;;;;;5064161;28;20247;-78
2021/12/16 08:47:21;;;;;;;25.42;14.13;;;4.60;94.80;;;;;;5065918;28;20043;-76
2021/12/16 08:49:50;;;;;;;29.10;15.50;;;4.70;94.40;;;;;;5057481;28;20545;-78
2021/12/16 08:52:18;;;;;;;32.13;18.13;;;4.80;93.80;;;;;;5062292;28;20025;-77
2021/12/16 08:54:45;;;;;;;70.53;39.03;;;4.70;93.90;;;;;;5052141;28;20083;-76
2021/12/16 08:57:13;;;;;;;75.15;38.40;;;4.70;95.00;;;;;;5031473;28;20035;-77
2021/12/16 08:59:39;;;;;;;73.13;36.25;;;4.70;95.30;;;;;;5055225;28;20154;-77
2021/12/16 09:02:07;;;;;;;66.97;33.55;;;4.70;95.40;;;;;;5062426;28;20037;-77
2021/12/16 09:04:35;;;;;;;83.70;43.47;;;4.60;95.50;;;;;;5053631;28;20032;-76
2021/12/16 09:07:05;;;;;;;87.50;43.92;;;4.50;95.80;;;;;;5053226;28;20563;-77
2021/12/16 09:09:34;;;;;;;89.28;43.83;;;4.60;96.10;;;;;;5028637;28;20028;-79
2021/12/16 09:14:38;;;;;;;104.25;52.45;;;4.50;96.40;;;;;;5055506;28;20044;-78
2021/12/16 09:17:13;;;;;;;116.68;56.45;;;4.40;96.70;;;;;;5057771;28;20055;-78
2021/12/16 09:19:51;;;;;;;111.63;55.28;;;4.40;96.80;;;;;;5048339;28;20021;-77
2021/12/16 09:22:22;;;;;;;125.00;59.08;;;4.50;96.80;;;;;;5046507;28;20013;-79
2021/12/16 09:24:49;;;;;;;137.38;65.13;;;4.50;96.90;;;;;;5048599;28;20118;-80
2021/12/16 09:27:17;;;;;;;131.32;64.20;;;4.50;96.90;;;;;;5029022;28;20033;-79
2021/12/16 09:29:47;;;;;;;132.07;64.45;;;4.40;96.90;;;;;;5049574;28;20025;-80
2021/12/16 09:32:13;;;;;;;134.50;65.03;;;4.20;96.90;;;;;;5052596;28;20241;-78
2021/12/16 09:34:40;;;;;;;127.80;61.55;;;4.20;97.40;;;;;;5032990;28;20668;-78
2021/12/16 09:37:07;;;;;;;123.45;62.28;;;4.30;97.40;;;;;;5054025;28;20036;-79
2021/12/16 09:39:33;;;;;;;120.32;59.92;;;4.30;97.30;;;;;;5052088;28;20052;-79
2021/12/16 09:42:06;;;;;;;118.47;60.40;;;4.40;97.40;;;;;;5056593;28;20033;-80
2021/12/16 09:44:38;;;;;;;124.13;60.75;;;4.50;97.10;;;;;;5057381;28;20025;-78
2021/12/16 09:47:11;;;;;;;124.90;59.72;;;4.50;96.70;;;;;;5026043;28;20778;-80
2021/12/16 09:49:37;;;;;;;113.55;59.08;;;4.60;96.60;;;;;;5041409;28;20125;-81
2021/12/16 09:52:07;;;;;;;126.45;61.20;;;4.60;96.40;;;;;;5043916;28;20025;-81
2021/12/16 09:54:34;;;;;;;102.25;54.05;;;4.70;96.20;;;;;;5043066;28;20021;-80
2021/12/16 09:57:00;;;;;;;103.88;53.60;;;4.80;96.20;;;;;;5045796;28;20081;-80
2021/12/16 09:59:30;;;;;;;103.55;52.97;;;4.80;96.30;;;;;;5026998;28;20014;-80
2021/12/16 10:02:02;;;;;;;106.50;52.42;;;5.10;96.50;;;;;;5041869;28;20434;-81
2021/12/16 10:04:31;;;;;;;101.18;52.03;;;4.80;96.60;;;;;;5042228;28;20070;-80
2021/12/16 10:07:00;;;;;;;107.82;53.55;;;4.90;96.60;;;;;;5023730;28;20033;-81
2021/12/16 10:09:29;;;;;;;110.50;54.03;;;5.00;96.30;;;;;;5040125;28;20052;-79
2021/12/16 10:12:00;;;;;;;99.70;50.80;;;5.00;95.90;;;;;;5045565;28;20022;-81
2021/12/16 10:19:41;;;;;;;104.72;53.20;;;4.90;95.80;;;;;;5046441;28;20024;-80
2021/12/16 10:22:33;;;;;;;98.00;53.00;;;4.90;95.70;;;;;;5043207;28;20040;-79
2021/12/16 10:25:30;;;;;;;104.50;52.72;;;4.90;95.60;;;;;;5047411;28;20025;-81
2021/12/16 10:28:04;;;;;;;101.82;53.95;;;4.80;95.50;;;;;;5048297;28;20064;-79
2021/12/16 10:31:00;;;;;;;97.65;52.65;;;4.80;95.60;;;;;;5048094;28;20021;-79
2021/12/16 10:33:43;;;;;;;99.87;51.47;;;4.90;95.50;;;;;;5047589;28;20021;-79
2021/12/16 10:36:31;;;;;;;96.85;51.00;;;4.70;95.20;;;;;;5048870;28;20318;-78
2021/12/16 10:39:06;;;;;;;105.22;53.38;;;5.10;95.00;;;;;;5049857;28;20290;-80
2021/12/16 10:41:42;;;;;;;100.20;52.17;;;5.00;95.10;;;;;;5050496;28;20039;-81
2021/12/16 10:44:27;;;;;;;105.07;51.33;;;5.00;95.20;;;;;;5049677;28;20013;-79
2021/12/16 10:47:03;;;;;;;92.45;46.25;;;4.90;95.50;;;;;;5034012;28;20029;-80
2021/12/16 10:49:31;;;;;;;;;;;4.80;95.60;;;;;;5048261;28;20017;-80
2021/12/16 10:52:10;;;;;;;115.35;55.95;;;4.80;96.00;;;;;;5030194;28;19905;-80
2021/12/16 10:54:48;;;;;;;108.60;53.80;;;4.80;96.20;;;;;;5049605;28;20627;-79
2021/12/16 10:57:19;;;;;;;107.63;52.42;;;4.90;96.10;;;;;;5052234;28;20017;-79
2021/12/16 10:59:59;;;;;;;99.47;49.33;;;4.90;96.10;;;;;;5051315;28;20222;-79
2021/12/16 11:02:28;;;;;;;101.93;51.08;;;5.00;95.90;;;;;;5054818;28;20013;-79
2021/12/16 11:05:00;;;;;;;91.20;40.20;;;5.00;95.70;;;;;;5055194;28;20021;-80
2021/12/16 11:07:27;;;;;;;90.82;43.30;;;5.00;95.40;;;;;;5054800;28;20029;-80
2021/12/16 11:10:16;;;;;;;93.97;43.10;;;4.80;95.40;;;;;;5055038;28;20025;-79
2021/12/16 11:12:50;;;;;;;81.20;38.28;;;4.70;95.70;;;;;;5052129;28;20053;-81
2021/12/16 11:15:25;;;;;;;107.63;48.85;;;4.60;95.60;;;;;;5047986;28;20739;-79
2021/12/16 11:18:10;;;;;;;85.75;39.25;;;4.60;95.80;;;;;;5034126;28;20044;-80
2021/12/16 11:20:42;;;;;;;84.07;40.15;;;4.60;95.70;;;;;;5032846;28;20099;-79
2021/12/16 11:23:22;;;;;;;86.25;38.03;;;4.50;96.10;;;;;;5046844;28;20029;-80
2021/12/16 11:25:47;;;;;;;84.57;36.88;;;4.60;96.10;;;;;;5044796;28;20079;-80
2021/12/16 11:28:24;;;;;;;78.13;32.97;;;4.60;96.00;;;;;;5048304;28;20269;-81
2021/12/16 11:30:57;;;;;;;83.65;35.03;;;4.50;95.60;;;;;;5048368;28;20021;-80
2021/12/16 11:33:39;;;;;;;98.53;42.60;;;4.50;95.70;;;;;;5044489;28;20096;-80
2021/12/16 11:36:26;;;;;;;113.57;51.65;;;4.60;96.10;;;;;;5043104;28;20017;-80
2021/12/16 11:39:16;;;;;;;76.68;35.50;;;4.70;96.10;;;;;;5042867;28;20017;-80
2021/12/16 11:42:03;;;;;;;86.32;35.20;;;4.70;95.60;;;;;;4961420;28;20154;-80
2021/12/16 11:44:33;;;;;;;76.78;34.65;;;4.80;95.20;;;;;;4960991;28;20069;-79
2021/12/16 11:47:00;;;;;;;77.43;32.95;;;4.90;95.30;;;;;;4961203;28;20038;-80
2021/12/16 11:49:35;;;;;;;78.80;34.42;;;4.80;94.90;;;;;;4960902;28;20015;-79
2021/12/16 11:52:19;;;;;;;68.47;29.73;;;4.70;95.00;;;;;;4961174;28;20043;-78
2021/12/16 11:54:54;;;;;;;94.20;39.25;;;4.80;94.60;;;;;;4959828;28;20027;-80
2021/12/16 11:57:29;;;;;;;72.57;31.02;;;4.70;94.80;;;;;;4960867;28;20027;-80
2021/12/16 12:00:06;;;;;;;70.22;31.10;;;4.70;94.60;;;;;;4961230;28;20809;-80
2021/12/16 12:02:37;;;;;;;72.15;31.73;;;4.70;94.20;;;;;;4960505;28;20813;-81
2021/12/16 12:05:12;;;;;;;79.00;33.90;;;4.70;94.80;;;;;;4959647;28;20171;-80
2021/12/16 12:07:43;;;;;;;69.00;32.08;;;4.70;94.90;;;;;;4960317;28;20046;-80
2021/12/16 12:10:22;;;;;;;64.22;30.63;;;4.80;94.50;;;;;;4959744;28;20030;-79
2021/12/16 12:12:51;;;;;;;67.40;30.30;;;4.80;94.60;;;;;;4960077;28;20070;-79
2021/12/16 12:15:18;;;;;;;75.00;36.83;;;4.90;94.40;;;;;;4961074;28;20701;-79
2021/12/16 12:17:50;;;;;;;81.72;36.63;;;4.90;94.70;;;;;;4967981;28;20109;-80
2021/12/16 12:20:18;;;;;;;83.50;37.05;;;4.90;94.10;;;;;;5029150;28;20080;-79
2021/12/16 12:22:51;;;;;;;87.45;39.33;;;5.00;94.50;;;;;;5046693;28;20746;-78
2021/12/16 12:25:20;;;;;;;79.70;34.10;;;5.00;94.40;;;;;;5045237;28;20017;-79
2021/12/16 12:27:47;;;;;;;128.15;47.35;;;4.90;94.30;;;;;;5029081;28;20041;-80
2021/12/16 12:30:13;;;;;;;93.20;40.08;;;4.90;94.60;;;;;;5046245;28;20013;-79
2021/12/16 12:32:42;;;;;;;86.22;40.20;;;5.00;94.60;;;;;;5042936;28;20549;-80
2021/12/16 12:35:11;;;;;;;96.32;44.30;;;5.00;94.40;;;;;;5043607;28;20071;-79
2021/12/16 12:37:39;;;;;;;90.97;41.00;;;5.00;94.50;;;;;;5026401;28;20039;-81
2021/12/16 12:40:33;;;;;;;85.60;39.30;;;5.10;94.40;;;;;;5043832;28;20040;-80
2021/12/16 12:43:00;;;;;;;84.28;41.78;;;5.20;94.40;;;;;;5042932;28;20100;-80
2021/12/16 12:45:34;;;;;;;92.35;41.15;;;5.20;94.30;;;;;;5046137;28;20017;-81
2021/12/16 12:48:02;;;;;;;90.45;40.38;;;5.20;94.30;;;;;;5044113;28;20045;-80
2021/12/16 12:50:34;;;;;;;97.30;41.78;;;5.30;94.30;;;;;;5041848;28;20581;-80
2021/12/16 12:53:26;;;;;;;88.78;40.85;;;5.30;94.20;;;;;;5042389;28;20096;-79
2021/12/16 12:55:56;;;;;;;103.03;44.60;;;5.30;94.20;;;;;;5045321;28;20013;-80
2021/12/16 12:58:28;;;;;;;84.40;41.08;;;5.30;94.50;;;;;;5044500;28;20025;-81
2021/12/16 13:01:05;;;;;;;91.53;42.40;;;5.30;94.60;;;;;;5050392;28;20009;-81
2021/12/16 13:03:39;;;;;;;97.93;46.22;;;5.30;94.40;;;;;;5045886;28;20107;-81
2021/12/16 13:06:14;;;;;;;86.35;42.05;;;5.30;94.20;;;;;;5035843;28;20021;-80
2021/12/16 13:08:43;;;;;;;94.95;44.35;;;5.40;94.30;;;;;;5033589;28;20036;-80
2021/12/16 13:11:19;;;;;;;99.53;43.45;;;5.40;94.30;;;;;;5037860;28;20050;-79
2021/12/16 13:14:22;;;;;;;94.75;42.05;;;5.30;94.20;;;;;;5036725;28;20036;-79
2021/12/16 13:28:37;;;;;;;106.68;47.35;;;5.30;94.50;;;;;;5045520;28;20646;-79
2021/12/16 13:31:22;;;;;;;109.07;49.22;;;5.30;94.60;;;;;;5025685;28;20678;-82
2021/12/16 13:33:54;;;;;;;107.53;48.63;;;5.30;94.50;;;;;;5044645;28;20017;-80
2021/12/16 13:36:46;;;;;;;111.13;52.08;;;5.30;94.80;;;;;;5026183;28;20033;-80
2021/12/16 13:39:16;;;;;;;111.00;49.75;;;5.20;94.50;;;;;;5044167;28;20622;-80
2021/12/16 13:41:57;;;;;;;100.65;43.22;;;5.20;94.60;;;;;;5045025;28;20064;-81
2021/12/16 13:44:41;;;;;;;84.57;39.00;;;5.20;94.50;;;;;;5043800;28;20099;-81
2021/12/16 13:47:20;;;;;;;87.88;38.95;;;5.20;94.30;;;;;;5046110;28;20079;-80
2021/12/16 14:10:11;;;;;;;98.20;45.13;;;5.00;94.90;;;;;;4988459;28;20042;-80
2021/12/16 14:13:58;;;;;;;92.57;42.95;;;5.00;94.70;;;;;;4989459;28;20034;-80
2021/12/16 14:25:00;;;;;;;103.50;49.53;;;4.90;95.30;;;;;;4993089;28;20029;-80
2021/12/16 14:41:36;;;;;;;178.50;77.53;;;4.70;95.90;;;;;;5025684;28;20100;-80
2021/12/16 14:44:08;;;;;;;171.63;75.32;;;4.60;95.90;;;;;;5021163;28;20026;-80
2021/12/16 14:46:43;;;;;;;161.07;73.22;;;4.60;96.10;;;;;;5024286;28;20069;-80
2021/12/16 14:49:09;;;;;;;168.95;78.35;;;4.60;96.10;;;;;;5021807;28;20103;-80
2021/12/16 14:51:34;;;;;;;181.15;82.00;;;4.60;96.30;;;;;;5023828;28;20483;-80
2021/12/16 14:54:00;;;;;;;190.60;85.00;;;4.60;96.10;;;;;;5020298;28;20045;-80
2021/12/16 14:56:31;;;;;;;190.27;85.15;;;4.60;96.10;;;;;;5020126;28;20111;-80
2021/12/16 14:59:01;;;;;;;201.70;91.93;;;4.60;96.20;;;;;;5020569;28;20026;-80
2021/12/16 15:01:36;;;;;;;195.52;88.97;;;4.50;96.20;;;;;;5020482;28;20025;-80
2021/12/16 15:04:04;;;;;;;219.50;99.32;;;4.50;96.50;;;;;;5021343;28;20025;-80
2021/12/16 15:06:41;;;;;;;201.95;93.10;;;4.50;96.60;;;;;;5033239;28;20063;-80
2021/12/16 15:09:27;;;;;;;198.77;89.95;;;4.50;96.40;;;;;;5046176;28;20028;-79
2021/12/16 15:12:11;;;;;;;204.40;91.77;;;4.50;96.50;;;;;;5027537;28;20031;-81
2021/12/16 15:17:34;;;;;;;185.40;86.95;;;4.40;96.40;;;;;;5045935;28;20571;-79
2021/12/16 15:39:53;;;;;;;207.02;98.78;;;4.40;97.30;;;;;;5049993;28;20113;-80
2021/12/16 15:45:22;;;;;;;200.15;91.07;;;4.30;97.20;;;;;;5048687;28;20032;-81
2021/12/16 15:47:55;;;;;;;201.05;91.95;;;4.30;97.20;;;;;;5049808;28;20036;-79
2021/12/16 15:50:30;;;;;;;174.45;89.07;;;4.50;97.30;;;;;;5032360;28;20738;-78
2021/12/16 15:52:58;;;;;;;188.40;86.88;;;4.30;97.40;;;;;;5052636;28;20076;-81
2021/12/16 15:55:40;;;;;;;185.23;87.22;;;4.30;97.70;;;;;;5054265;28;20013;-82
2021/12/16 15:58:11;;;;;;;177.48;86.90;;;4.30;97.40;;;;;;5039541;28;20028;-81
2021/12/16 16:01:02;;;;;;;186.68;90.95;;;4.30;97.40;;;;;;5029583;28;20030;-78
2021/12/16 16:03:29;;;;;;;205.68;93.72;;;4.30;97.60;;;;;;5032042;28;20124;-80
2021/12/16 16:06:02;;;;;;;221.20;99.78;;;4.30;97.80;;;;;;5024154;28;20084;-79
2021/12/16 16:08:33;;;;;;;263.98;121.10;;;4.30;97.90;;;;;;5025172;28;20096;-80
2021/12/16 16:11:03;;;;;;;240.23;112.28;;;4.20;97.90;;;;;;5029254;28;20037;-81
2021/12/16 16:13:35;;;;;;;215.70;101.43;;;4.20;97.80;;;;;;5027205;28;20088;-82
2021/12/16 16:16:03;;;;;;;210.82;101.45;;;4.20;98.10;;;;;;5025228;28;20049;-81
2021/12/16 16:21:13;;;;;;;197.18;93.25;;;4.10;98.90;;;;;;5023551;28;20076;-79
2021/12/16 16:23:43;;;;;;;213.68;98.10;;;4.10;98.50;;;;;;5025298;28;20215;-81
2021/12/16 16:26:13;;;;;;;203.77;95.07;;;4.10;98.60;;;;;;5027787;28;20037;-81
2021/12/16 16:28:41;;;;;;;198.32;95.03;;;4.10;98.40;;;;;;5028318;28;20059;-81
2021/12/16 16:31:20;;;;;;;203.50;97.95;;;4.00;98.50;;;;;;5015406;28;20029;-80
2021/12/16 16:33:47;;;;;;;209.20;97.10;;;4.10;98.60;;;;;;5051292;28;20025;-81
2021/12/16 16:36:19;;;;;;;236.18;113.47;;;4.10;98.50;;;;;;5049800;28;20017;-79
2021/12/16 16:38:54;;;;;;;245.35;115.03;;;4.10;98.50;;;;;;5047100;28;20111;-80
2021/12/16 16:41:26;;;;;;;233.25;111.63;;;4.00;98.60;;;;;;5031211;28;20419;-81
2021/12/16 16:43:53;;;;;;;242.85;116.93;;;4.10;98.70;;;;;;5049281;28;20029;-81
2021/12/16 16:46:36;;;;;;;205.38;100.68;;;4.10;98.80;;;;;;5052635;28;20188;-80
2021/12/16 16:49:07;;;;;;;210.63;99.22;;;5.30;99.00;;;;;;5052217;28;20084;-81
2021/12/16 16:51:45;;;;;;;215.63;105.60;;;4.00;98.80;;;;;;5053810;28;20013;-80
2021/12/16 16:54:19;;;;;;;203.68;94.03;;;3.90;98.80;;;;;;5035475;28;20036;-79
2021/12/16 16:57:05;;;;;;;185.63;88.43;;;3.90;98.80;;;;;;5056206;28;20017;-79
2021/12/16 16:59:38;;;;;;;176.35;85.05;;;3.90;99.00;;;;;;5059416;28;20029;-80
2021/12/16 17:02:26;;;;;;;189.02;87.07;;;3.90;99.10;;;;;;5041408;28;20068;-80
2021/12/16 17:05:03;;;;;;;195.00;90.43;;;3.80;99.00;;;;;;5041185;28;20610;-80
2021/12/16 17:08:00;;;;;;;186.00;89.35;;;3.80;99.10;;;;;;5062382;28;20041;-80